Time;durP1;ratioP1;P1;durP2;ratioP2;P2;SDS_P1;SDS_P2;PMS_P1;PMS_P2;Temp;Humidity;BMP_temperature;BMP_pressure;BME280_temperature;BME280_humidity;BME280_pressure;Samples;Min_cycle;Max_cycle;Signal;HPM_P1;HPM_P2
2023/04/26 00:02:10;;;;;;;12.35;6.55;;;9.30;68.30;;;;;;4982457;28;20449;-60
2023/04/26 00:04:36;;;;;;;10.57;6.40;;;9.30;68.40;;;;;;4984729;28;20030;-61
2023/04/26 00:07:02;;;;;;;12.15;5.82;;;9.30;68.60;;;;;;4994714;28;20377;-61
2023/04/26 00:09:28;;;;;;;11.55;6.57;;;9.30;68.60;;;;;;4988050;28;20031;-60
2023/04/26 00:11:54;;;;;;;7.55;6.25;;;9.30;68.70;;;;;;4983846;28;20030;-61
2023/04/26 00:14:20;;;;;;;10.00;6.05;;;9.40;68.70;;;;;;4984753;28;20029;-62
2023/04/26 00:16:45;;;;;;;7.85;5.97;;;9.40;68.70;;;;;;4984357;28;20061;-61
2023/04/26 00:19:12;;;;;;;10.35;6.70;;;9.40;68.70;;;;;;4993364;28;20030;-61
2023/04/26 00:21:38;;;;;;;10.77;6.35;;;9.40;68.30;;;;;;4982342;28;20023;-61
2023/04/26 00:24:07;;;;;;;11.40;6.63;;;9.40;68.30;;;;;;4987756;28;20054;-62
2023/04/26 00:26:33;;;;;;;12.60;6.95;;;9.40;68.30;;;;;;4987171;28;20026;-62
2023/04/26 00:29:00;;;;;;;10.35;6.75;;;9.40;68.30;;;;;;4993412;28;20381;-62
2023/04/26 00:31:25;;;;;;;13.30;7.40;;;9.40;68.30;;;;;;4983005;28;20489;-61
2023/04/26 00:33:51;;;;;;;9.65;6.47;;;9.40;68.30;;;;;;4985966;28;20026;-60
2023/04/26 00:36:18;;;;;;;9.95;6.82;;;9.40;68.30;;;;;;4984062;28;20035;-60
2023/04/26 00:38:44;;;;;;;13.48;7.00;;;9.40;68.40;;;;;;4986803;28;20045;-61
2023/04/26 00:41:10;;;;;;;12.15;7.15;;;9.40;68.40;;;;;;4987302;28;20030;-60
2023/04/26 00:43:36;;;;;;;9.82;7.20;;;9.40;68.50;;;;;;4983138;28;20027;-62
2023/04/26 00:46:02;;;;;;;10.50;6.72;;;9.30;67.80;;;;;;4978244;28;20031;-61
2023/04/26 00:48:29;;;;;;;11.00;7.18;;;9.30;68.50;;;;;;4982712;28;20604;-61
2023/04/26 00:50:55;;;;;;;12.05;7.20;;;9.30;68.40;;;;;;4992928;28;20077;-61
2023/04/26 00:53:22;;;;;;;15.57;7.13;;;9.30;68.40;;;;;;4986612;28;20082;-60
2023/04/26 00:55:48;;;;;;;8.90;6.57;;;9.30;68.60;;;;;;4983187;28;20026;-60
2023/04/26 00:58:13;;;;;;;17.90;7.50;;;9.30;68.70;;;;;;4983326;28;20042;-61
2023/04/26 01:00:39;;;;;;;14.85;7.15;;;9.30;68.80;;;;;;4983093;28;20027;-60
2023/04/26 01:03:05;;;;;;;12.10;7.43;;;9.30;68.80;;;;;;4990963;28;20102;-60
2023/04/26 01:05:30;;;;;;;10.82;7.07;;;9.30;68.90;;;;;;4985255;28;20019;-61
2023/04/26 01:07:58;;;;;;;12.38;6.68;;;9.30;69.00;;;;;;4987624;28;20030;-60
2023/04/26 01:10:24;;;;;;;10.32;7.20;;;9.30;68.90;;;;;;4990695;28;20035;-60
2023/04/26 01:12:50;;;;;;;11.98;6.93;;;9.30;68.90;;;;;;4983888;28;20033;-61
2023/04/26 01:15:16;;;;;;;11.77;7.88;;;9.30;69.00;;;;;;4983336;28;20051;-61
2023/04/26 01:17:45;;;;;;;14.88;7.47;;;9.30;69.00;;;;;;4986582;28;20027;-61
2023/04/26 01:20:12;;;;;;;11.15;7.35;;;9.30;68.90;;;;;;4980450;28;20070;-60
2023/04/26 01:22:38;;;;;;;11.43;7.55;;;9.30;68.80;;;;;;5002578;28;20097;-61
2023/04/26 01:25:08;;;;;;;10.63;6.97;;;9.30;68.80;;;;;;4991074;28;20086;-60
2023/04/26 01:27:34;;;;;;;11.15;7.20;;;9.30;68.70;;;;;;4986271;28;20370;-60
2023/04/26 01:30:00;;;;;;;12.25;7.18;;;9.30;68.80;;;;;;4984575;28;20023;-60
2023/04/26 01:32:26;;;;;;;15.65;7.75;;;9.30;68.60;;;;;;4981766;28;20423;-61
2023/04/26 01:34:52;;;;;;;14.50;8.00;;;9.30;68.50;;;;;;4983355;28;20057;-60
2023/04/26 01:37:17;;;;;;;15.48;7.85;;;9.30;68.30;;;;;;4981816;28;20034;-60
2023/04/26 01:39:43;;;;;;;13.30;7.28;;;9.20;68.40;;;;;;4983192;28;20046;-60
2023/04/26 01:42:10;;;;;;;12.32;7.70;;;9.20;68.50;;;;;;4927664;28;20035;-61
2023/04/26 01:44:36;;;;;;;15.07;8.23;;;9.20;68.50;;;;;;4978405;28;20027;-60
2023/04/26 01:47:01;;;;;;;15.02;8.02;;;9.20;68.50;;;;;;4985604;28;20042;-61
2023/04/26 01:49:27;;;;;;;12.95;8.65;;;9.20;68.60;;;;;;4983707;28;20082;-61
2023/04/26 01:51:54;;;;;;;13.35;8.10;;;9.20;68.80;;;;;;4982069;28;20055;-60
2023/04/26 01:54:20;;;;;;;14.23;8.43;;;9.20;68.70;;;;;;4988354;28;20382;-60
2023/04/26 01:56:45;;;;;;;15.75;8.43;;;9.20;68.50;;;;;;4985122;28;20086;-61
2023/04/26 01:59:11;;;;;;;12.52;7.78;;;9.20;68.40;;;;;;4988115;28;20054;-60
2023/04/26 02:01:37;;;;;;;13.27;8.55;;;9.10;68.30;;;;;;4986414;28;20097;-60
2023/04/26 02:04:03;;;;;;;19.88;9.40;;;9.10;68.40;;;;;;4986697;28;20031;-61
2023/04/26 02:06:30;;;;;;;13.88;8.77;;;9.10;68.40;;;;;;4983027;28;20094;-61
2023/04/26 02:08:56;;;;;;;16.23;8.80;;;9.20;68.60;;;;;;4982551;28;20034;-61
2023/04/26 02:11:22;;;;;;;15.80;8.38;;;9.10;68.50;;;;;;4985400;28;20054;-61
2023/04/26 02:13:47;;;;;;;14.98;8.35;;;9.10;68.50;;;;;;4987044;28;20050;-60
2023/04/26 02:16:15;;;;;;;16.95;7.97;;;9.10;68.60;;;;;;4980380;28;20062;-60
2023/04/26 02:18:40;;;;;;;14.80;8.25;;;9.10;68.60;;;;;;4982134;28;20085;-60
2023/04/26 02:21:11;;;;;;;12.90;7.82;;;9.10;68.50;;;;;;4986191;28;20031;-60
2023/04/26 02:23:36;;;;;;;16.77;8.48;;;9.30;68.70;;;;;;4995467;28;20034;-61
2023/04/26 02:26:03;;;;;;;15.80;8.52;;;9.10;68.40;;;;;;4990736;28;20062;-61
2023/04/26 02:28:29;;;;;;;13.63;8.52;;;9.10;68.20;;;;;;4987670;28;20030;-61
2023/04/26 02:30:55;;;;;;;15.52;7.47;;;9.10;68.10;;;;;;4980456;28;20031;-60
2023/04/26 02:33:21;;;;;;;18.10;8.10;;;9.00;68.00;;;;;;4984706;28;20019;-60
2023/04/26 02:35:47;;;;;;;19.90;8.48;;;9.00;68.10;;;;;;4982913;28;20065;-60
2023/04/26 02:38:13;;;;;;;11.93;7.38;;;8.90;68.00;;;;;;4974104;28;20066;-60
2023/04/26 02:40:42;;;;;;;15.15;8.02;;;8.90;68.10;;;;;;4983469;28;20756;-61
2023/04/26 02:43:10;;;;;;;13.93;7.75;;;8.90;68.20;;;;;;4989039;28;20053;-61
2023/04/26 02:45:42;;;;;;;11.88;7.57;;;8.80;68.20;;;;;;4989396;28;20022;-61
2023/04/26 02:48:08;;;;;;;16.25;7.60;;;8.80;68.60;;;;;;4976586;28;20081;-60
2023/04/26 02:50:35;;;;;;;14.90;7.80;;;8.80;68.50;;;;;;4989766;28;20031;-61
2023/04/26 02:53:02;;;;;;;15.07;8.10;;;8.80;68.50;;;;;;4980051;28;20023;-61
2023/04/26 02:55:28;;;;;;;13.35;7.75;;;8.70;68.50;;;;;;4982672;28;20360;-60
2023/04/26 02:57:53;;;;;;;16.83;8.30;;;8.70;68.30;;;;;;4984270;28;20051;-60
2023/04/26 03:00:19;;;;;;;15.20;8.55;;;8.70;68.20;;;;;;4980610;28;20049;-60
2023/04/26 03:02:45;;;;;;;13.07;7.88;;;8.60;68.10;;;;;;4985761;28;20026;-61
2023/04/26 03:05:10;;;;;;;14.52;8.25;;;8.60;68.20;;;;;;4989566;28;20035;-60
2023/04/26 03:07:36;;;;;;;13.98;8.05;;;8.50;68.20;;;;;;4985112;28;20051;-61
2023/04/26 03:10:03;;;;;;;14.80;7.95;;;8.50;68.30;;;;;;4987895;28;20030;-61
2023/04/26 03:12:29;;;;;;;12.82;8.00;;;8.50;68.50;;;;;;4986043;28;20054;-60
2023/04/26 03:14:55;;;;;;;15.60;8.65;;;8.40;68.40;;;;;;4984624;28;20031;-61
2023/04/26 03:17:20;;;;;;;15.98;7.93;;;8.30;68.40;;;;;;4982317;28;20062;-60
2023/04/26 03:19:46;;;;;;;13.90;8.00;;;8.30;68.50;;;;;;4983751;28;20146;-62
2023/04/26 03:22:14;;;;;;;14.20;8.10;;;8.30;68.50;;;;;;4980912;28;20031;-61
2023/04/26 03:24:45;;;;;;;16.13;8.18;;;8.20;68.60;;;;;;4977090;28;20026;-61
2023/04/26 03:27:10;;;;;;;14.20;8.23;;;8.20;68.70;;;;;;4985566;28;20033;-61
2023/04/26 03:29:36;;;;;;;13.50;8.45;;;8.20;68.80;;;;;;4979476;28;20042;-61
2023/04/26 03:32:02;;;;;;;18.88;8.13;;;8.20;68.80;;;;;;4981728;28;20034;-61
2023/04/26 03:34:27;;;;;;;15.88;8.32;;;8.10;68.70;;;;;;4983835;28;20050;-60
2023/04/26 03:36:53;;;;;;;14.73;9.00;;;8.10;68.80;;;;;;4992292;28;20038;-61
2023/04/26 03:39:19;;;;;;;29.45;8.68;;;8.10;68.50;;;;;;4985747;28;20043;-61
2023/04/26 03:41:45;;;;;;;17.60;8.63;;;8.00;68.60;;;;;;4913251;28;20084;-60
2023/04/26 03:44:11;;;;;;;16.85;9.13;;;8.00;68.70;;;;;;4983294;28;20173;-61
2023/04/26 03:46:37;;;;;;;16.35;8.82;;;8.00;68.80;;;;;;4982842;28;20046;-61
2023/04/26 03:49:02;;;;;;;21.67;9.90;;;7.90;68.90;;;;;;4979429;28;20102;-61
2023/04/26 03:51:28;;;;;;;15.95;8.65;;;7.90;68.90;;;;;;4984021;28;20027;-61
2023/04/26 03:53:54;;;;;;;19.67;9.18;;;7.90;68.90;;;;;;4978130;28;20518;-60
2023/04/26 03:56:20;;;;;;;14.88;9.15;;;7.90;68.80;;;;;;4988851;28;20031;-61
2023/04/26 03:58:46;;;;;;;15.18;8.55;;;7.90;68.80;;;;;;4984865;28;20029;-61
2023/04/26 04:01:11;;;;;;;13.98;8.40;;;7.80;68.80;;;;;;4988018;28;20030;-60
2023/04/26 04:03:37;;;;;;;15.05;8.52;;;7.80;68.80;;;;;;4988057;28;20023;-61
2023/04/26 04:06:03;;;;;;;16.38;9.43;;;7.80;68.80;;;;;;4987351;28;20038;-61
2023/04/26 04:08:29;;;;;;;18.25;9.77;;;7.80;68.80;;;;;;4985933;28;20446;-61
2023/04/26 04:10:55;;;;;;;14.57;9.07;;;7.80;68.70;;;;;;4987643;28;20098;-61
2023/04/26 04:13:21;;;;;;;18.73;9.20;;;7.70;68.60;;;;;;4988152;28;20046;-61
2023/04/26 04:15:47;;;;;;;19.77;9.32;;;7.70;68.70;;;;;;4987923;28;20030;-61
2023/04/26 04:18:12;;;;;;;16.08;9.05;;;7.70;68.70;;;;;;4982998;28;20082;-61
2023/04/26 04:20:40;;;;;;;17.80;9.40;;;7.70;68.70;;;;;;4984027;28;20482;-60
2023/04/26 04:23:06;;;;;;;14.60;9.00;;;7.60;68.70;;;;;;4990968;28;20039;-61
2023/04/26 04:25:33;;;;;;;14.57;9.15;;;7.60;68.80;;;;;;4985145;28;20018;-61
2023/04/26 04:28:00;;;;;;;15.25;8.77;;;7.60;68.90;;;;;;4993621;28;20049;-60
2023/04/26 04:30:28;;;;;;;14.52;8.55;;;7.60;69.00;;;;;;4984032;28;20026;-61
2023/04/26 04:32:54;;;;;;;13.82;8.60;;;7.50;68.80;;;;;;4987709;28;20025;-61
2023/04/26 04:35:22;;;;;;;16.10;8.63;;;7.50;68.90;;;;;;4988767;28;20030;-61
2023/04/26 04:37:49;;;;;;;14.30;9.32;;;7.50;68.90;;;;;;4983207;28;20078;-61
2023/04/26 04:40:14;;;;;;;15.90;9.02;;;7.50;68.90;;;;;;4986686;28;20137;-60
2023/04/26 04:42:43;;;;;;;15.45;9.77;;;7.50;68.90;;;;;;4981410;28;20462;-60
2023/04/26 04:45:09;;;;;;;18.70;10.13;;;7.40;68.80;;;;;;4987520;28;20089;-60
2023/04/26 04:47:36;;;;;;;18.23;9.85;;;7.40;68.80;;;;;;4981578;28;20023;-62
2023/04/26 04:50:04;;;;;;;15.70;10.05;;;7.40;68.90;;;;;;4995592;28;20033;-61
2023/04/26 04:52:31;;;;;;;14.40;9.75;;;7.30;69.00;;;;;;4981238;28;20030;-60
2023/04/26 04:54:58;;;;;;;17.83;9.88;;;7.30;69.20;;;;;;4991276;28;20023;-60
2023/04/26 04:57:23;;;;;;;18.65;10.95;;;7.30;69.30;;;;;;4998748;28;20061;-60
2023/04/26 04:59:50;;;;;;;18.13;10.98;;;7.30;69.30;;;;;;4987187;28;20022;-60
2023/04/26 05:02:15;;;;;;;17.92;10.73;;;7.30;69.30;;;;;;4982012;28;20027;-60
2023/04/26 05:04:41;;;;;;;15.18;10.43;;;7.40;69.40;;;;;;4986165;28;20130;-60
2023/04/26 05:07:07;;;;;;;19.13;9.82;;;7.40;69.50;;;;;;4984961;28;20035;-60
2023/04/26 05:09:32;;;;;;;15.70;10.00;;;7.40;69.50;;;;;;4987152;28;20042;-60
2023/04/26 05:11:58;;;;;;;16.58;10.07;;;7.40;69.50;;;;;;4990465;28;20044;-60
2023/04/26 05:14:24;;;;;;;14.45;9.57;;;7.40;69.60;;;;;;4980495;28;20075;-61
2023/04/26 05:16:50;;;;;;;16.65;10.30;;;7.50;69.90;;;;;;4986241;28;20043;-60
2023/04/26 05:19:15;;;;;;;14.70;9.40;;;7.50;69.70;;;;;;4981027;28;20103;-61
2023/04/26 05:21:41;;;;;;;15.85;9.68;;;7.50;69.70;;;;;;4982694;28;20026;-61
2023/04/26 05:24:07;;;;;;;17.65;9.43;;;7.60;69.70;;;;;;4987348;28;20042;-60
2023/04/26 05:26:34;;;;;;;16.02;9.98;;;7.60;69.60;;;;;;4988667;28;20082;-60
2023/04/26 05:29:00;;;;;;;16.30;9.05;;;7.60;69.40;;;;;;4983285;28;20090;-60
2023/04/26 05:31:26;;;;;;;14.15;9.55;;;7.60;70.10;;;;;;4990550;28;20026;-60
2023/04/26 05:33:51;;;;;;;15.32;9.48;;;7.60;69.40;;;;;;4982982;28;20033;-60
2023/04/26 05:36:17;;;;;;;16.17;9.13;;;7.60;69.40;;;;;;4983989;28;20034;-61
2023/04/26 05:38:43;;;;;;;17.77;10.32;;;7.70;69.50;;;;;;4982275;28;20031;-60
2023/04/26 05:41:09;;;;;;;19.70;9.88;;;7.60;69.50;;;;;;4983701;28;20046;-60
2023/04/26 05:43:34;;;;;;;19.42;9.65;;;7.50;69.30;;;;;;4984296;28;20054;-60
2023/04/26 05:46:01;;;;;;;14.85;8.48;;;7.70;69.40;;;;;;4980082;28;20034;-60
2023/04/26 05:48:26;;;;;;;20.10;9.35;;;7.70;69.50;;;;;;4985889;28;20045;-60
2023/04/26 05:50:53;;;;;;;17.27;9.48;;;7.70;69.50;;;;;;4985058;28;20034;-61
2023/04/26 05:53:19;;;;;;;12.95;9.15;;;7.70;69.70;;;;;;4986001;28;20081;-61
2023/04/26 05:55:45;;;;;;;15.18;8.90;;;7.80;69.70;;;;;;4985153;28;20089;-60
2023/04/26 05:58:11;;;;;;;19.30;10.20;;;7.80;69.80;;;;;;4990254;28;20026;-61
2023/04/26 06:00:37;;;;;;;15.63;9.60;;;7.80;69.80;;;;;;4983845;28;20417;-60
2023/04/26 06:03:03;;;;;;;20.88;9.98;;;7.90;70.00;;;;;;4990651;28;20027;-62
2023/04/26 06:05:30;;;;;;;16.00;9.23;;;8.00;70.00;;;;;;4980358;28;20101;-62
2023/04/26 06:07:56;;;;;;;16.23;9.43;;;8.00;70.00;;;;;;4980097;28;20027;-62
2023/04/26 06:10:22;;;;;;;16.10;9.32;;;8.10;69.90;;;;;;4980472;28;20118;-62
2023/04/26 06:12:47;;;;;;;18.75;9.50;;;8.20;70.00;;;;;;4983118;28;20031;-62
2023/04/26 06:15:13;;;;;;;13.70;9.43;;;8.20;70.20;;;;;;4985956;28;20022;-61
2023/04/26 06:17:40;;;;;;;19.30;9.25;;;8.30;70.30;;;;;;4981906;28;20042;-62
2023/04/26 06:20:08;;;;;;;12.75;8.75;;;8.50;70.60;;;;;;4983217;28;20409;-62
2023/04/26 06:22:34;;;;;;;16.00;9.85;;;8.60;70.20;;;;;;4984761;28;20113;-62
2023/04/26 06:25:00;;;;;;;13.40;9.10;;;8.70;69.90;;;;;;4979609;28;20051;-62
2023/04/26 06:27:26;;;;;;;12.63;8.80;;;8.80;70.00;;;;;;4984195;28;20041;-61
2023/04/26 06:34:56;;;;;;;13.65;8.57;;;9.00;69.50;;;;;;5035794;28;20046;-63
2023/04/26 06:37:22;;;;;;;17.08;8.77;;;9.20;69.70;;;;;;5018386;28;20045;-62
2023/04/26 06:39:47;;;;;;;13.15;9.05;;;9.30;70.00;;;;;;5044595;28;20036;-63
2023/04/26 06:42:13;;;;;;;15.40;9.30;;;9.40;70.00;;;;;;5038084;28;20067;-63
2023/04/26 06:44:39;;;;;;;16.73;8.50;;;9.60;70.00;;;;;;5037753;28;20022;-63
2023/04/26 06:47:08;;;;;;;13.10;8.30;;;9.70;70.00;;;;;;5037733;28;20030;-64
2023/04/26 06:49:34;;;;;;;16.00;9.07;;;9.90;69.70;;;;;;5038065;28;20029;-63
2023/04/26 06:52:00;;;;;;;19.17;8.40;;;10.10;69.30;;;;;;5032933;28;20061;-62
2023/04/26 06:54:29;;;;;;;9.63;6.57;;;10.20;68.40;;;;;;5032751;28;20400;-62
2023/04/26 06:56:55;;;;;;;11.75;5.72;;;10.30;67.80;;;;;;5038727;28;20487;-62
2023/04/26 06:59:21;;;;;;;8.50;3.80;;;10.40;67.00;;;;;;5037749;28;20628;-63
2023/04/26 07:01:47;;;;;;;6.43;3.75;;;10.50;65.60;;;;;;5035048;28;20033;-63
2023/04/26 07:04:13;;;;;;;8.27;3.85;;;10.60;64.90;;;;;;5036047;28;20030;-63
2023/04/26 07:06:40;;;;;;;6.35;3.60;;;10.60;64.80;;;;;;5039008;28;20022;-63
2023/04/26 07:09:06;;;;;;;9.75;3.58;;;10.70;64.50;;;;;;5033807;28;20030;-63
2023/04/26 07:11:32;;;;;;;9.07;3.30;;;10.90;64.20;;;;;;5022291;28;20031;-63
2023/04/26 07:13:58;;;;;;;5.60;2.58;;;11.10;64.10;;;;;;5044550;28;20029;-63
2023/04/26 07:16:23;;;;;;;6.15;2.03;;;11.20;63.70;;;;;;5038699;28;20064;-63
2023/04/26 07:18:50;;;;;;;8.05;2.67;;;11.40;62.20;;;;;;5036605;28;20099;-63
2023/04/26 07:21:15;;;;;;;6.43;2.85;;;11.60;61.10;;;;;;5033732;28;20041;-63
2023/04/26 07:23:41;;;;;;;6.32;2.40;;;11.70;59.80;;;;;;5037630;28;20025;-63
2023/04/26 07:26:09;;;;;;;4.47;2.08;;;11.80;59.80;;;;;;5038077;28;20053;-63
2023/04/26 07:28:35;;;;;;;9.93;2.83;;;11.80;59.10;;;;;;5040540;28;20033;-63
2023/04/26 07:31:01;;;;;;;9.18;3.83;;;11.90;59.30;;;;;;5042674;28;20030;-63
2023/04/26 07:33:26;;;;;;;7.20;3.95;;;11.90;59.40;;;;;;5041395;28;20143;-63
2023/04/26 07:35:55;;;;;;;10.20;4.30;;;11.90;59.70;;;;;;5050795;28;20033;-63
2023/04/26 07:38:20;;;;;;;8.73;3.83;;;11.80;59.40;;;;;;5038616;28;20024;-63
2023/04/26 07:40:46;;;;;;;7.63;4.30;;;12.00;59.40;;;;;;5033756;28;20034;-62
2023/04/26 07:43:14;;;;;;;11.13;3.83;;;12.00;59.00;;;;;;5042112;28;20105;-63
2023/04/26 07:45:40;;;;;;;6.30;3.47;;;12.00;59.30;;;;;;5038933;28;20052;-63
2023/04/26 07:48:06;;;;;;;7.25;3.72;;;12.10;59.30;;;;;;5041653;28;20033;-63
2023/04/26 07:50:32;;;;;;;17.90;3.42;;;12.20;58.80;;;;;;5047715;28;20053;-63
2023/04/26 07:52:57;;;;;;;8.52;2.90;;;12.40;58.50;;;;;;5024270;28;20036;-63
2023/04/26 07:55:23;;;;;;;9.13;4.00;;;12.40;57.90;;;;;;5047592;28;20121;-63
2023/04/26 07:57:49;;;;;;;8.02;3.30;;;12.50;57.50;;;;;;5040120;28;20042;-63
2023/04/26 08:00:16;;;;;;;6.45;3.20;;;12.60;57.30;;;;;;5038276;28;20033;-63
2023/04/26 08:02:41;;;;;;;5.90;3.22;;;12.70;57.30;;;;;;5038346;28;20013;-63
2023/04/26 08:05:07;;;;;;;9.02;2.97;;;12.80;57.70;;;;;;5042749;28;20057;-63
2023/04/26 08:07:33;;;;;;;6.90;2.20;;;12.90;57.50;;;;;;5037215;28;20042;-63
2023/04/26 08:09:59;;;;;;;7.40;2.30;;;13.10;57.60;;;;;;5035013;28;20515;-63
2023/04/26 08:12:25;;;;;;;4.35;2.50;;;13.20;56.70;;;;;;5038070;28;20026;-63
2023/04/26 08:14:51;;;;;;;6.43;2.50;;;13.30;56.40;;;;;;5041521;28;20029;-63
2023/04/26 08:17:16;;;;;;;5.95;2.22;;;13.40;56.00;;;;;;5049940;28;20171;-63
2023/04/26 08:19:42;;;;;;;9.60;2.53;;;13.50;55.20;;;;;;5037922;28;20018;-63
2023/04/26 08:22:08;;;;;;;6.85;2.47;;;13.60;54.80;;;;;;5040216;28;20471;-62
2023/04/26 08:24:33;;;;;;;4.15;2.10;;;13.60;54.50;;;;;;5036305;28;20028;-63
2023/04/26 08:26:59;;;;;;;10.57;2.78;;;13.70;54.20;;;;;;5043539;28;20324;-63
2023/04/26 08:29:26;;;;;;;4.40;2.22;;;13.70;54.20;;;;;;5045310;28;20036;-63
2023/04/26 08:31:52;;;;;;;6.68;2.72;;;13.80;54.30;;;;;;5044159;28;20024;-63
2023/04/26 08:34:18;;;;;;;9.73;2.90;;;13.90;54.00;;;;;;5037589;28;20037;-63
2023/04/26 08:36:44;;;;;;;9.45;3.00;;;13.90;54.10;;;;;;5033893;28;20040;-64
2023/04/26 08:39:13;;;;;;;7.72;2.75;;;14.00;54.20;;;;;;5021205;28;20018;-61
2023/04/26 08:41:44;;;;;;;7.07;2.28;;;14.10;54.10;;;;;;5037441;28;20065;-63
2023/04/26 08:44:10;;;;;;;5.55;2.13;;;14.10;53.80;;;;;;5036787;28;20021;-63
2023/04/26 08:46:54;;;;;;;7.10;2.50;;;14.20;53.80;;;;;;5035887;28;20036;-63
2023/04/26 08:49:20;;;;;;;9.00;3.08;;;14.20;52.20;;;;;;5046168;28;20037;-63
2023/04/26 08:51:47;;;;;;;7.97;2.75;;;14.30;53.40;;;;;;5037970;28;20025;-63
2023/04/26 08:54:14;;;;;;;7.45;2.80;;;14.30;52.90;;;;;;5045970;28;20514;-63
2023/04/26 08:56:43;;;;;;;6.80;2.85;;;14.30;52.80;;;;;;5040511;28;20052;-63
2023/04/26 08:59:09;;;;;;;10.90;2.75;;;14.30;52.80;;;;;;5038436;28;20108;-63
2023/04/26 09:01:41;;;;;;;8.73;2.53;;;14.30;52.80;;;;;;5034789;28;20376;-63
2023/04/26 09:04:07;;;;;;;7.03;2.38;;;14.20;52.50;;;;;;5038096;28;20037;-63
2023/04/26 09:06:33;;;;;;;5.03;2.50;;;14.20;52.60;;;;;;5043793;28;20364;-63
2023/04/26 09:09:03;;;;;;;10.63;2.90;;;14.20;53.00;;;;;;5046087;28;20036;-63
2023/04/26 09:11:29;;;;;;;4.78;2.30;;;14.30;52.90;;;;;;5029837;28;20022;-63
2023/04/26 09:13:56;;;;;;;8.48;2.33;;;14.40;53.70;;;;;;5048856;28;20043;-63
2023/04/26 09:16:35;;;;;;;5.63;2.30;;;14.50;53.20;;;;;;5044381;28;20025;-63
2023/04/26 09:19:01;;;;;;;9.32;2.40;;;14.70;51.10;;;;;;5034126;28;20105;-63
2023/04/26 09:21:28;;;;;;;7.70;2.60;;;14.80;52.20;;;;;;5047054;28;20029;-64
2023/04/26 09:24:03;;;;;;;3.95;2.15;;;14.90;52.20;;;;;;5035824;28;20032;-63
2023/04/26 09:26:29;;;;;;;4.82;2.33;;;14.90;51.20;;;;;;5025428;28;20045;-64
2023/04/26 09:29:17;;;;;;;9.98;2.47;;;15.00;51.70;;;;;;5041670;28;20029;-64
2023/04/26 09:31:47;;;;;;;5.32;2.15;;;15.00;50.60;;;;;;5040186;28;20025;-63
2023/04/26 09:34:14;;;;;;;6.65;2.33;;;15.00;51.40;;;;;;5044026;28;20092;-63
2023/04/26 09:36:50;;;;;;;6.35;2.35;;;15.00;51.00;;;;;;5038407;28;20047;-63
2023/04/26 09:39:33;;;;;;;8.60;2.20;;;14.90;49.90;;;;;;5041475;28;20404;-63
2023/04/26 09:42:00;;;;;;;6.13;1.98;;;14.80;49.60;;;;;;5038926;28;20028;-63
2023/04/26 09:44:28;;;;;;;6.97;2.05;;;14.80;51.80;;;;;;5052364;28;20020;-64
2023/04/26 09:47:10;;;;;;;6.93;2.50;;;14.80;51.90;;;;;;5020281;28;20059;-63
2023/04/26 09:49:47;;;;;;;10.63;2.28;;;14.90;50.70;;;;;;5041500;28;20076;-63
2023/04/26 09:52:14;;;;;;;6.03;2.03;;;15.00;50.50;;;;;;5037781;28;20018;-64
2023/04/26 09:54:41;;;;;;;5.85;1.88;;;15.10;51.20;;;;;;5037679;28;20051;-63
2023/04/26 09:57:07;;;;;;;8.18;2.70;;;15.00;50.40;;;;;;5043831;28;20405;-63
2023/04/26 09:59:40;;;;;;;5.43;2.00;;;15.00;50.90;;;;;;5039763;28;20030;-64
2023/04/26 10:02:29;;;;;;;6.80;2.47;;;14.90;50.10;;;;;;5039405;28;20044;-64
2023/04/26 10:04:56;;;;;;;7.63;2.35;;;14.90;50.50;;;;;;5035100;28;20068;-64
2023/04/26 10:07:23;;;;;;;6.53;1.83;;;14.90;51.00;;;;;;5035503;28;20032;-63
2023/04/26 10:09:49;;;;;;;5.50;2.00;;;14.90;51.00;;;;;;5044225;28;20071;-64
2023/04/26 10:12:18;;;;;;;6.05;2.00;;;14.90;51.00;;;;;;5018490;28;20037;-64
2023/04/26 10:14:45;;;;;;;5.53;2.08;;;15.00;51.20;;;;;;5042224;28;20053;-63
2023/04/26 10:17:11;;;;;;;8.15;2.10;;;15.10;51.00;;;;;;5039176;28;20093;-63
2023/04/26 10:19:40;;;;;;;4.60;1.83;;;15.20;50.20;;;;;;5029675;28;20018;-63
2023/04/26 10:22:15;;;;;;;8.07;2.50;;;15.30;49.70;;;;;;5035546;28;20040;-63
2023/04/26 10:24:43;;;;;;;5.68;2.72;;;15.30;48.60;;;;;;5038290;28;20033;-63
2023/04/26 10:27:09;;;;;;;7.82;2.28;;;15.30;49.00;;;;;;5032547;28;20044;-63
2023/04/26 10:29:53;;;;;;;3.25;1.95;;;15.20;49.20;;;;;;5034496;28;20063;-63
2023/04/26 10:32:19;;;;;;;5.35;1.95;;;15.20;49.10;;;;;;5034372;28;20454;-64
2023/04/26 10:35:11;;;;;;;6.95;2.15;;;15.20;50.30;;;;;;5036511;28;20041;-63
2023/04/26 10:38:03;;;;;;;9.15;1.98;;;15.30;49.60;;;;;;5034197;28;20038;-64
2023/04/26 10:40:32;;;;;;;3.00;1.77;;;15.30;49.10;;;;;;4953349;28;20036;-64
2023/04/26 10:43:13;;;;;;;5.95;1.90;;;15.30;48.70;;;;;;5044086;28;20026;-63
2023/04/26 10:45:40;;;;;;;4.78;1.92;;;15.30;48.50;;;;;;5011065;28;20037;-63
2023/04/26 10:48:31;;;;;;;6.47;2.00;;;15.30;47.00;;;;;;5037614;28;20037;-64
2023/04/26 10:51:04;;;;;;;6.38;2.00;;;15.20;47.00;;;;;;5028618;28;20014;-63
2023/04/26 10:53:48;;;;;;;5.60;1.80;;;15.10;48.30;;;;;;5042980;28;20029;-64
2023/04/26 10:56:22;;;;;;;6.55;2.15;;;15.10;48.20;;;;;;5040167;28;20121;-63
2023/04/26 10:59:05;;;;;;;8.13;2.10;;;15.00;48.20;;;;;;5034568;28;20022;-63
2023/04/26 11:01:31;;;;;;;17.08;3.17;;;15.10;49.20;;;;;;5039491;28;20046;-64
2023/04/26 11:03:57;;;;;;;7.00;2.28;;;15.10;49.00;;;;;;5036478;28;20034;-64
2023/04/26 11:06:25;;;;;;;5.85;1.80;;;15.10;47.70;;;;;;5041264;28;20184;-64
2023/04/26 11:08:52;;;;;;;4.03;1.73;;;15.10;47.70;;;;;;5038055;28;20021;-63
2023/04/26 11:11:18;;;;;;;7.88;2.00;;;15.10;48.50;;;;;;5055392;28;20049;-63
2023/04/26 11:13:45;;;;;;;3.33;1.75;;;15.20;49.20;;;;;;5051986;28;20026;-64
2023/04/26 11:16:15;;;;;;;6.38;1.83;;;15.30;49.40;;;;;;5049069;28;20501;-64
2023/04/26 11:18:43;;;;;;;4.38;1.55;;;15.50;49.90;;;;;;5044345;28;20108;-63
2023/04/26 11:33:33;;;;;;;6.63;1.65;;;15.70;49.30;;;;;;5113858;27;20496;-62
2023/04/26 11:35:59;;;;;;;5.80;2.00;;;16.50;42.30;;;;;;5112334;28;20036;-62
2023/04/26 11:38:27;;;;;;;3.88;1.92;;;16.50;42.60;;;;;;5115299;28;20020;-61
2023/04/26 11:40:54;;;;;;;3.60;1.67;;;16.40;42.00;;;;;;5105363;28;20084;-61
2023/04/26 11:43:19;;;;;;;3.35;1.70;;;16.30;42.90;;;;;;5104367;28;20126;-62
2023/04/26 11:45:45;;;;;;;4.30;1.52;;;16.20;43.80;;;;;;5112523;28;20032;-61
2023/04/26 11:48:12;;;;;;;4.25;2.15;;;16.10;43.70;;;;;;5112882;28;20032;-61
2023/04/26 11:50:38;;;;;;;8.77;1.90;;;16.00;44.00;;;;;;5109212;28;20058;-61
2023/04/26 12:22:21;;;;;;;4.45;1.63;;;14.00;50.60;;;;;;4887816;22;2022405;-95
2023/04/26 12:24:47;;;;;;;3.47;1.80;;;13.90;50.80;;;;;;5067199;28;20348;-93
2023/04/26 12:27:20;;;;;;;4.97;1.98;;;14.10;50.50;;;;;;5048597;28;20029;-94
2023/04/26 12:29:45;;;;;;;4.47;2.00;;;14.50;50.10;;;;;;5054114;28;20021;-93
2023/04/26 12:32:11;;;;;;;6.20;1.95;;;14.80;49.90;;;;;;5053298;28;20097;-93
2023/04/26 12:34:38;;;;;;;5.18;2.00;;;15.10;49.30;;;;;;5052910;28;20120;-94
2023/04/26 12:37:04;;;;;;;8.82;2.08;;;15.30;49.50;;;;;;5033300;28;20034;-95
2023/04/26 12:39:30;;;;;;;3.28;1.58;;;15.60;49.00;;;;;;5046218;28;20086;-95
2023/04/26 12:41:56;;;;;;;7.70;2.38;;;15.80;48.40;;;;;;5043515;28;20044;-95
2023/04/26 12:45:02;;;;;;;6.22;1.70;;;16.10;48.00;;;;;;5050122;28;20028;-94
2023/04/26 12:47:30;;;;;;;7.00;2.33;;;16.40;47.60;;;;;;5044293;28;20045;-96
2023/04/26 12:49:57;;;;;;;4.70;1.92;;;16.60;47.90;;;;;;5046715;28;20029;-96
2023/04/26 12:52:23;;;;;;;6.22;2.08;;;16.80;47.30;;;;;;5048791;28;20025;-95
2023/04/26 12:54:49;;;;;;;3.63;1.90;;;16.90;46.90;;;;;;5049372;28;21243;-95
2023/04/26 12:57:15;;;;;;;5.28;2.03;;;17.00;45.40;;;;;;5053846;28;20029;-95
2023/04/26 12:59:41;;;;;;;4.82;1.95;;;17.10;45.00;;;;;;5051733;28;20399;-95
2023/04/26 13:02:08;;;;;;;3.65;2.10;;;17.20;45.50;;;;;;5054970;28;20049;-95
2023/04/26 13:04:34;;;;;;;5.03;2.00;;;17.30;45.70;;;;;;5051737;28;20088;-96
2023/04/26 13:07:00;;;;;;;3.25;1.95;;;17.30;45.50;;;;;;5049040;28;20052;-94
2023/04/26 13:09:26;;;;;;;10.18;2.35;;;17.40;45.70;;;;;;5053286;28;20087;-96
2023/04/26 13:11:52;;;;;;;3.67;2.20;;;17.40;45.40;;;;;;5051575;28;20032;-95
2023/04/26 13:14:18;;;;;;;6.97;2.53;;;17.50;45.00;;;;;;5054030;28;20036;-95
2023/04/26 13:16:44;;;;;;;6.80;2.30;;;17.50;44.50;;;;;;5053260;28;20447;-96
2023/04/26 13:19:10;;;;;;;2.85;1.85;;;17.50;42.60;;;;;;5047802;28;20026;-96
2023/04/26 13:21:36;;;;;;;7.00;2.15;;;17.50;43.70;;;;;;5045533;28;20040;-95
2023/04/26 13:24:02;;;;;;;8.25;1.95;;;17.50;44.30;;;;;;5054532;28;20061;-95
2023/04/26 13:26:28;;;;;;;8.00;2.28;;;17.50;44.80;;;;;;5051860;28;20024;-96
2023/04/26 13:28:57;;;;;;;4.50;2.10;;;17.60;45.40;;;;;;5048057;28;20025;-96
2023/04/26 13:31:53;;;;;;;8.48;2.00;;;18.00;45.60;;;;;;5044591;28;20027;-95
2023/04/26 13:34:19;;;;;;;5.57;1.92;;;18.00;43.60;;;;;;5019375;28;20041;-94